Time;durP1;ratioP1;P1;durP2;ratioP2;P2;SDS_P1;SDS_P2;PMS_P1;PMS_P2;Temp;Humidity;BMP_temperature;BMP_pressure;BME280_temperature;BME280_humidity;BME280_pressure;Samples;Min_cycle;Max_cycle;Signal;HPM_P1;HPM_P2
2022/01/23 00:02:23;;;;;;;14.70;6.40;;;5.30;99.90;;;;;;6197198;22;20023;-93
2022/01/23 00:04:48;;;;;;;13.85;6.38;;;4.90;99.90;;;;;;6198337;22;20095;-93
2022/01/23 00:07:15;;;;;;;17.80;7.35;;;4.90;99.90;;;;;;6197407;22;20043;-94
2022/01/23 00:09:41;;;;;;;17.92;8.13;;;5.40;99.90;;;;;;6197446;22;20015;-93
2022/01/23 00:12:15;;;;;;;11.90;6.75;;;5.50;99.90;;;;;;6197026;22;20347;-92
2022/01/23 00:17:33;;;;;;;19.25;7.68;;;4.90;99.90;;;;;;6247484;22;20126;-93
2022/01/23 00:20:00;;;;;;;17.77;7.72;;;5.40;99.90;;;;;;6198862;22;20455;-93
2022/01/23 00:30:33;;;;;;;12.85;6.18;;;4.80;99.90;;;;;;6224908;22;20022;-94
2022/01/23 00:33:02;;;;;;;15.13;6.05;;;5.30;99.90;;;;;;6223037;22;20016;-93
2022/01/23 00:35:29;;;;;;;11.25;6.03;;;5.10;99.90;;;;;;6248508;22;20481;-92
2022/01/23 00:37:56;;;;;;;14.38;6.25;;;5.30;99.90;;;;;;6223601;22;20068;-93
2022/01/23 00:40:24;;;;;;;10.73;6.30;;;4.80;99.90;;;;;;6198624;22;20020;-92
2022/01/23 00:42:50;;;;;;;15.00;6.40;;;4.80;99.90;;;;;;6223506;22;20061;-93
2022/01/23 00:45:36;;;;;;;14.32;6.88;;;5.50;99.90;;;;;;6198334;22;20414;-93
2022/01/23 00:48:08;;;;;;;15.00;6.40;;;4.80;99.90;;;;;;6248995;22;20075;-93
2022/01/23 00:50:39;;;;;;;13.43;6.28;;;4.80;99.90;;;;;;6223603;22;20085;-92
2022/01/23 00:53:09;;;;;;;12.23;6.30;;;5.10;99.90;;;;;;6223005;22;20020;-93
2022/01/23 00:55:36;;;;;;;14.93;6.32;;;4.80;99.90;;;;;;6223873;22;20129;-93
2022/01/23 00:58:02;;;;;;;15.90;6.70;;;5.90;99.90;;;;;;6223695;22;20016;-93
2022/01/23 01:00:28;;;;;;;14.40;5.90;;;5.00;99.90;;;;;;6198554;22;20108;-93
2022/01/23 01:02:53;;;;;;;14.88;6.13;;;5.10;99.90;;;;;;6251178;22;20019;-94
2022/01/23 01:05:20;;;;;;;13.07;5.95;;;4.80;99.90;;;;;;6200460;22;20053;-93
2022/01/23 01:07:45;;;;;;;10.70;5.82;;;5.10;99.90;;;;;;6200098;22;20019;-92
2022/01/23 01:10:24;;;;;;;12.35;5.85;;;4.80;99.90;;;;;;6250549;22;20016;-92
2022/01/23 01:12:55;;;;;;;12.68;6.65;;;5.00;99.90;;;;;;6249640;22;20011;-93
2022/01/23 01:15:31;;;;;;;12.88;6.07;;;4.90;99.90;;;;;;6225170;22;20022;-93
2022/01/23 01:31:49;;;;;;;14.52;7.40;;;4.90;99.90;;;;;;6227415;22;20023;-93
2022/01/23 01:34:25;;;;;;;19.17;8.23;;;4.80;99.90;;;;;;6247301;22;20016;-92
2022/01/23 01:36:53;;;;;;;17.88;8.10;;;5.70;99.90;;;;;;6223215;22;20022;-93
2022/01/23 01:39:25;;;;;;;19.60;8.23;;;4.80;99.90;;;;;;6198265;22;20012;-93
2022/01/23 01:41:52;;;;;;;19.05;8.55;;;4.80;99.90;;;;;;6222685;22;20012;-93
2022/01/23 01:44:18;;;;;;;19.73;8.10;;;4.70;99.90;;;;;;6223823;22;20018;-92
2022/01/23 01:46:44;;;;;;;15.10;7.60;;;4.70;99.90;;;;;;6225589;22;20062;-93
2022/01/23 01:49:10;;;;;;;16.13;7.55;;;4.90;99.90;;;;;;6201259;22;20016;-92
2022/01/23 01:51:38;;;;;;;17.98;7.97;;;5.50;99.90;;;;;;6225638;22;20047;-92
2022/01/23 01:54:13;;;;;;;16.13;7.18;;;4.70;99.90;;;;;;6224813;22;20012;-94
2022/01/23 01:56:49;;;;;;;16.52;8.20;;;5.80;99.90;;;;;;6199308;22;20086;-93
2022/01/23 01:59:45;;;;;;;14.75;7.05;;;4.80;99.90;;;;;;6222406;22;20532;-93
2022/01/23 02:10:05;;;;;;;21.80;7.50;;;5.10;99.90;;;;;;6248732;22;20148;-92
2022/01/23 02:15:27;;;;;;;20.58;7.50;;;4.70;99.90;;;;;;6247289;22;20024;-91
2022/01/23 02:18:02;;;;;;;14.25;7.55;;;4.70;99.90;;;;;;6225521;22;20358;-93
2022/01/23 02:51:29;;;;;;;20.08;7.45;;;4.70;99.90;;;;;;6173729;23;20045;-92
2022/01/23 02:54:21;;;;;;;13.18;7.38;;;4.70;99.90;;;;;;6166775;23;20031;-92
2022/01/23 02:56:51;;;;;;;21.38;8.18;;;5.20;99.90;;;;;;6170386;23;20040;-92
2022/01/23 02:59:26;;;;;;;15.55;7.65;;;4.70;99.90;;;;;;6188513;23;20013;-93
2022/01/23 03:02:13;;;;;;;13.38;7.15;;;4.60;99.90;;;;;;6186833;23;20013;-93
2022/01/23 03:04:51;;;;;;;13.65;7.53;;;4.70;99.90;;;;;;6187038;23;20020;-94
2022/01/23 03:15:20;;;;;;;15.57;7.47;;;4.70;99.90;;;;;;6190529;23;20324;-93
2022/01/23 03:34:07;;;;;;;15.48;7.25;;;4.70;99.90;;;;;;6217243;23;20050;-92
2022/01/23 03:36:33;;;;;;;15.18;7.10;;;4.70;99.90;;;;;;6214789;23;20051;-93
2022/01/23 03:38:59;;;;;;;20.00;7.30;;;5.10;99.90;;;;;;6168450;23;20031;-93
2022/01/23 03:41:25;;;;;;;19.85;8.13;;;4.70;99.90;;;;;;6167165;23;20176;-92
2022/01/23 03:43:51;;;;;;;17.85;8.13;;;5.20;99.90;;;;;;6217130;23;20017;-93
2022/01/23 03:46:47;;;;;;;21.17;7.20;;;4.70;99.90;;;;;;6200282;23;20024;-93
2022/01/23 03:49:33;;;;;;;15.70;7.00;;;5.40;99.90;;;;;;6197382;23;20019;-93
2022/01/23 03:52:04;;;;;;;22.70;7.90;;;4.70;99.90;;;;;;6239071;23;20478;-94
2022/01/23 03:54:31;;;;;;;16.33;7.35;;;4.70;99.90;;;;;;6214956;23;20016;-94
2022/01/23 03:56:59;;;;;;;17.20;8.38;;;5.10;99.90;;;;;;6214079;23;20351;-94
2022/01/23 03:59:26;;;;;;;17.35;9.05;;;5.00;99.90;;;;;;6214291;23;20095;-93
2022/01/23 04:01:51;;;;;;;19.02;9.52;;;5.40;99.90;;;;;;6214825;23;20039;-93
2022/01/23 04:04:37;;;;;;;17.35;9.27;;;4.60;99.90;;;;;;6193156;23;20016;-93
2022/01/23 04:07:06;;;;;;;22.73;9.85;;;5.70;99.90;;;;;;6222425;23;20017;-93
2022/01/23 04:09:32;;;;;;;20.80;10.73;;;4.60;99.90;;;;;;6218926;23;20102;-92
2022/01/23 04:11:59;;;;;;;21.38;9.93;;;4.90;99.90;;;;;;6218685;23;20016;-93
2022/01/23 04:14:26;;;;;;;23.80;11.27;;;5.10;99.90;;;;;;6194444;23;20698;-94
2022/01/23 04:19:54;;;;;;;27.13;12.77;;;4.60;99.90;;;;;;6198923;23;20016;-93
2022/01/23 05:00:35;;;;;;;21.10;9.98;;;4.90;99.90;;;;;;6222319;23;20022;-93
2022/01/23 05:06:01;;;;;;;21.00;9.68;;;5.70;99.90;;;;;;6148820;22;20071;-93
2022/01/23 05:08:30;;;;;;;17.45;9.02;;;4.70;99.90;;;;;;6198220;23;20027;-94
2022/01/23 05:10:59;;;;;;;17.55;8.68;;;4.60;99.90;;;;;;6221860;23;20020;-92
2022/01/23 05:13:26;;;;;;;19.30;8.35;;;4.70;99.90;;;;;;6196689;23;20020;-94
2022/01/23 05:15:52;;;;;;;17.27;8.38;;;4.70;99.90;;;;;;6219084;23;20023;-93
2022/01/23 05:18:18;;;;;;;19.30;9.32;;;5.60;99.90;;;;;;6195757;23;20016;-93
2022/01/23 05:20:46;;;;;;;19.60;8.85;;;4.80;99.90;;;;;;6194525;23;20518;-94
2022/01/23 05:23:12;;;;;;;21.63;9.77;;;4.70;99.90;;;;;;6194317;23;20012;-93
2022/01/23 05:25:39;;;;;;;20.30;9.32;;;4.70;99.90;;;;;;6194152;23;20051;-93
2022/01/23 05:28:07;;;;;;;16.73;8.77;;;4.70;99.90;;;;;;6194672;23;20081;-93
2022/01/23 05:30:34;;;;;;;18.98;8.73;;;4.70;99.90;;;;;;6219615;23;20024;-94
2022/01/23 05:33:00;;;;;;;16.33;8.00;;;4.70;99.90;;;;;;6221294;23;20016;-92
2022/01/23 05:35:28;;;;;;;19.67;8.60;;;5.50;99.90;;;;;;6195701;23;20055;-93
2022/01/23 05:37:54;;;;;;;18.75;8.82;;;4.90;99.90;;;;;;6220615;23;20089;-95
2022/01/23 05:40:23;;;;;;;22.90;9.10;;;4.90;99.90;;;;;;6195603;23;20695;-93
2022/01/23 05:42:48;;;;;;;15.45;8.70;;;5.20;99.90;;;;;;6220174;23;20395;-94
2022/01/23 05:45:15;;;;;;;18.23;8.48;;;4.80;99.90;;;;;;6194678;22;20139;-92
2022/01/23 05:47:40;;;;;;;20.17;9.90;;;4.70;99.90;;;;;;6251139;22;20073;-94
2022/01/23 05:50:07;;;;;;;20.73;9.80;;;5.70;99.90;;;;;;6200407;22;20020;-94
2022/01/23 05:52:33;;;;;;;23.65;9.82;;;4.70;99.90;;;;;;6201106;22;20043;-93
2022/01/23 05:54:59;;;;;;;20.05;10.05;;;4.70;99.90;;;;;;6226111;22;20027;-93
2022/01/23 05:57:25;;;;;;;24.30;9.65;;;5.30;99.90;;;;;;6201221;22;20106;-93
2022/01/23 05:59:50;;;;;;;19.90;10.45;;;5.30;99.90;;;;;;6200360;22;20019;-94
2022/01/23 06:02:16;;;;;;;23.17;10.40;;;5.80;99.90;;;;;;6200619;22;20455;-93
2022/01/23 06:04:42;;;;;;;19.23;10.10;;;5.90;99.90;;;;;;6199474;22;20015;-92
2022/01/23 06:07:07;;;;;;;21.40;10.20;;;5.00;99.90;;;;;;6198756;22;20023;-93
2022/01/23 06:09:36;;;;;;;22.98;10.10;;;4.90;99.90;;;;;;6199284;22;20070;-93
2022/01/23 06:12:03;;;;;;;21.80;10.60;;;4.70;99.90;;;;;;6176607;22;20016;-93
2022/01/23 06:14:28;;;;;;;22.50;9.82;;;4.70;99.90;;;;;;6174714;22;20116;-93
2022/01/23 06:16:54;;;;;;;17.52;9.20;;;4.70;99.90;;;;;;6198149;22;20023;-94
2022/01/23 06:19:20;;;;;;;23.35;9.05;;;4.60;99.90;;;;;;6224585;22;20019;-94
2022/01/23 06:21:45;;;;;;;19.58;9.02;;;5.30;99.90;;;;;;6200327;22;20008;-93
2022/01/23 06:24:23;;;;;;;21.83;9.98;;;4.60;99.90;;;;;;6199691;22;20065;-93
2022/01/23 06:26:53;;;;;;;18.70;9.25;;;5.90;99.90;;;;;;6202264;22;20165;-93
2022/01/23 06:29:22;;;;;;;19.70;9.15;;;4.70;99.90;;;;;;6224582;22;20022;-94
2022/01/23 06:31:49;;;;;;;16.70;8.43;;;4.90;99.90;;;;;;6225126;22;20026;-93
2022/01/23 06:34:17;;;;;;;23.05;10.32;;;4.60;99.90;;;;;;6199458;22;20019;-93
2022/01/23 06:36:43;;;;;;;17.27;9.15;;;4.60;99.90;;;;;;6224965;22;20015;-95
2022/01/23 06:39:11;;;;;;;20.00;8.95;;;4.60;99.90;;;;;;6226050;22;20065;-95
2022/01/23 06:41:38;;;;;;;20.50;9.95;;;4.70;99.90;;;;;;6223884;22;20019;-95
2022/01/23 06:44:05;;;;;;;16.80;8.68;;;4.90;99.90;;;;;;6224718;22;20016;-96
2022/01/23 06:46:33;;;;;;;19.77;9.23;;;4.60;99.90;;;;;;6198649;22;20024;-95
2022/01/23 06:49:00;;;;;;;19.73;9.18;;;5.20;99.90;;;;;;6199776;22;20962;-95
2022/01/23 06:51:26;;;;;;;25.83;9.73;;;5.30;99.90;;;;;;6224362;22;20026;-96
2022/01/23 06:53:52;;;;;;;19.40;8.77;;;4.80;99.90;;;;;;6224122;22;20022;-95
2022/01/23 06:56:18;;;;;;;16.35;8.30;;;5.50;99.90;;;;;;6223868;22;20350;-95
2022/01/23 06:58:44;;;;;;;16.38;8.85;;;5.10;99.90;;;;;;6224103;22;20617;-95
2022/01/23 07:01:10;;;;;;;15.82;8.68;;;5.40;99.90;;;;;;6199456;22;20098;-96
2022/01/23 07:03:36;;;;;;;15.18;8.60;;;4.70;99.90;;;;;;6201237;22;20050;-95
2022/01/23 07:06:02;;;;;;;20.98;9.70;;;4.60;99.90;;;;;;6200681;22;20070;-96
2022/01/23 07:08:28;;;;;;;18.80;8.82;;;4.60;99.90;;;;;;6224938;22;20007;-95
2022/01/23 07:10:54;;;;;;;17.95;9.07;;;4.60;99.90;;;;;;6200246;22;20169;-93
2022/01/23 07:13:20;;;;;;;19.67;9.30;;;4.60;99.90;;;;;;6224361;22;20022;-93
2022/01/23 07:15:47;;;;;;;14.85;8.45;;;4.60;99.90;;;;;;6196820;22;20012;-93
2022/01/23 07:18:15;;;;;;;16.55;9.55;;;4.50;99.90;;;;;;6221879;22;20012;-94
2022/01/23 07:20:42;;;;;;;20.00;8.52;;;4.50;99.90;;;;;;6223205;22;20024;-93
2022/01/23 07:23:08;;;;;;;19.00;8.40;;;4.60;99.90;;;;;;6197073;22;20027;-94
2022/01/23 07:25:34;;;;;;;17.65;8.85;;;4.60;99.90;;;;;;6197525;22;20016;-94
2022/01/23 07:28:01;;;;;;;17.90;7.95;;;4.50;99.90;;;;;;6222306;22;20454;-92
2022/01/23 07:32:59;;;;;;;19.67;9.38;;;4.60;99.90;;;;;;6250235;22;20016;-94
2022/01/23 07:35:25;;;;;;;19.52;10.48;;;5.40;99.90;;;;;;6197443;22;20020;-92
2022/01/23 07:37:51;;;;;;;22.30;11.00;;;5.30;99.90;;;;;;6222450;22;20099;-92
2022/01/23 07:40:16;;;;;;;25.90;11.80;;;5.10;99.90;;;;;;6173032;22;20128;-93
2022/01/23 07:42:42;;;;;;;21.40;10.63;;;5.60;99.90;;;;;;6175896;22;20016;-93
2022/01/23 07:45:09;;;;;;;23.40;9.70;;;5.00;99.90;;;;;;6174019;22;20015;-93
2022/01/23 07:47:35;;;;;;;20.27;10.55;;;4.60;99.90;;;;;;6198909;22;20024;-95
2022/01/23 07:50:03;;;;;;;20.77;9.70;;;4.60;99.90;;;;;;6199427;22;20050;-94
2022/01/23 07:52:30;;;;;;;21.35;11.20;;;4.60;99.90;;;;;;6225302;22;20015;-94
2022/01/23 07:54:56;;;;;;;21.83;10.80;;;4.60;99.90;;;;;;6175067;22;20020;-93
2022/01/23 07:57:22;;;;;;;22.77;9.80;;;5.10;99.90;;;;;;6199189;22;20100;-92
2022/01/23 07:59:48;;;;;;;19.90;9.32;;;5.40;99.90;;;;;;6197995;22;20102;-93
2022/01/23 08:02:13;;;;;;;20.35;9.90;;;4.60;99.90;;;;;;6221601;22;20431;-94
2022/01/23 08:04:40;;;;;;;16.30;8.52;;;4.60;99.90;;;;;;6198185;22;20100;-93
2022/01/23 08:07:11;;;;;;;18.88;8.85;;;4.60;99.90;;;;;;6199857;22;20047;-93
2022/01/23 08:09:37;;;;;;;17.63;8.67;;;4.60;99.90;;;;;;6200735;22;20011;-94
2022/01/23 08:12:04;;;;;;;14.65;7.40;;;5.00;99.90;;;;;;6199464;22;20055;-94
2022/01/23 08:14:30;;;;;;;21.92;8.52;;;4.70;99.90;;;;;;6224405;22;20358;-94
2022/01/23 08:16:56;;;;;;;17.13;8.77;;;4.80;99.90;;;;;;6224603;22;20016;-93
2022/01/23 08:19:21;;;;;;;17.90;9.10;;;4.70;99.90;;;;;;6200085;22;20476;-93
2022/01/23 08:21:47;;;;;;;19.60;8.38;;;4.70;99.90;;;;;;6224226;22;20012;-93
2022/01/23 08:24:13;;;;;;;18.92;9.75;;;4.80;99.90;;;;;;6224629;22;20078;-94
2022/01/23 08:26:39;;;;;;;17.38;9.75;;;4.80;99.90;;;;;;6198984;22;20342;-94
2022/01/23 08:29:05;;;;;;;16.50;9.82;;;4.80;99.90;;;;;;6199316;22;20019;-94
2022/01/23 08:31:31;;;;;;;17.98;10.10;;;5.60;99.90;;;;;;6199447;22;20500;-93
2022/01/23 08:33:57;;;;;;;17.15;8.68;;;4.80;99.90;;;;;;6199262;22;20015;-93
2022/01/23 08:36:23;;;;;;;16.50;8.30;;;4.80;99.90;;;;;;6224574;22;20016;-94
2022/01/23 08:38:49;;;;;;;16.70;7.32;;;5.10;99.90;;;;;;6198878;22;20314;-93
2022/01/23 08:43:50;;;;;;;14.82;7.03;;;4.90;99.90;;;;;;6225548;22;20706;-93
2022/01/23 08:46:17;;;;;;;14.13;6.97;;;5.50;99.90;;;;;;6196802;22;20030;-94
2022/01/23 08:48:43;;;;;;;13.85;6.57;;;5.00;99.90;;;;;;6222147;22;20047;-94
2022/01/23 08:51:10;;;;;;;18.48;7.80;;;5.10;99.90;;;;;;6225075;22;20022;-93
2022/01/23 08:53:36;;;;;;;15.43;7.90;;;5.60;99.90;;;;;;6201447;22;20046;-94
2022/01/23 08:56:02;;;;;;;12.18;5.93;;;5.10;99.90;;;;;;6202438;22;20081;-93
2022/01/23 08:58:27;;;;;;;10.00;5.38;;;5.10;99.90;;;;;;6201001;22;20016;-94
2022/01/23 09:00:53;;;;;;;11.75;5.70;;;5.10;99.90;;;;;;6201433;22;20521;-93
2022/01/23 09:03:19;;;;;;;9.00;5.18;;;5.20;99.90;;;;;;6201405;22;20584;-93
2022/01/23 09:05:44;;;;;;;12.07;5.75;;;5.50;99.90;;;;;;6202113;22;20317;-92
2022/01/23 09:08:10;;;;;;;8.18;5.18;;;5.20;99.90;;;;;;6201084;22;20015;-87
2022/01/23 09:10:41;;;;;;;9.48;5.80;;;5.30;99.90;;;;;;6250576;22;20041;-92
2022/01/23 09:13:28;;;;;;;9.43;5.50;;;5.30;99.90;;;;;;6195961;22;20034;-92
2022/01/23 09:15:54;;;;;;;11.90;5.93;;;6.50;99.90;;;;;;6244883;22;20020;-88
2022/01/23 09:18:19;;;;;;;9.00;5.50;;;5.70;99.90;;;;;;6193517;22;20027;-88
2022/01/23 09:20:45;;;;;;;9.82;5.85;;;5.30;99.90;;;;;;6193935;22;20045;-89
2022/01/23 09:23:11;;;;;;;9.63;5.85;;;5.40;99.90;;;;;;6221497;22;20474;-88
2022/01/23 09:25:37;;;;;;;9.57;5.80;;;5.40;99.90;;;;;;6199763;22;20046;-88
2022/01/23 09:28:04;;;;;;;11.38;6.53;;;5.60;99.90;;;;;;6224406;22;20016;-89
2022/01/23 09:30:35;;;;;;;11.90;6.07;;;5.50;99.90;;;;;;6224096;22;20087;-88
2022/01/23 09:33:01;;;;;;;10.65;6.10;;;5.50;99.90;;;;;;6218679;22;20016;-87
2022/01/23 09:35:27;;;;;;;10.43;5.88;;;6.00;99.90;;;;;;6218595;22;20024;-87
2022/01/23 09:37:53;;;;;;;9.77;5.25;;;5.60;99.90;;;;;;6219084;22;20038;-87
2022/01/23 09:40:19;;;;;;;9.90;5.22;;;5.60;99.90;;;;;;6194242;22;20020;-87
2022/01/23 09:42:54;;;;;;;9.05;5.07;;;5.60;99.90;;;;;;6194371;22;20470;-86
2022/01/23 09:45:20;;;;;;;8.27;5.28;;;5.70;99.90;;;;;;6243738;22;20023;-87
2022/01/23 09:47:47;;;;;;;9.82;4.90;;;5.70;99.90;;;;;;6220233;22;20027;-88
2022/01/23 09:50:15;;;;;;;8.15;5.45;;;6.10;99.90;;;;;;6219784;22;20019;-88
2022/01/23 09:52:41;;;;;;;9.68;5.18;;;5.70;99.90;;;;;;6245011;22;20657;-88
2022/01/23 09:55:11;;;;;;;13.48;7.18;;;5.80;99.90;;;;;;6220532;22;20016;-87
2022/01/23 09:57:44;;;;;;;8.07;4.75;;;5.80;99.90;;;;;;6246143;22;20088;-89
2022/01/23 10:00:16;;;;;;;7.70;4.43;;;5.90;99.90;;;;;;6219743;22;20019;-90
2022/01/23 10:02:43;;;;;;;8.88;4.70;;;5.90;99.90;;;;;;6243790;22;20019;-90
2022/01/23 10:05:09;;;;;;;8.77;4.70;;;6.40;99.90;;;;;;6218939;22;20066;-89
2022/01/23 10:07:39;;;;;;;7.32;4.43;;;6.00;99.90;;;;;;6193539;22;20154;-89
2022/01/23 10:10:13;;;;;;;12.10;4.82;;;6.00;99.90;;;;;;6219279;22;20019;-90
2022/01/23 10:12:47;;;;;;;10.15;4.05;;;6.00;99.90;;;;;;6244072;22;20078;-90
2022/01/23 10:15:13;;;;;;;8.68;4.72;;;6.00;99.90;;;;;;6193986;22;20020;-90
2022/01/23 10:17:40;;;;;;;7.60;4.18;;;6.60;99.90;;;;;;6200995;22;20034;-91
2022/01/23 10:20:08;;;;;;;12.35;4.75;;;6.60;99.90;;;;;;6195976;22;20024;-93
2022/01/23 10:22:36;;;;;;;8.68;4.90;;;6.10;99.90;;;;;;6220897;22;20028;-88
2022/01/23 10:25:11;;;;;;;9.55;5.38;;;6.10;99.90;;;;;;6248624;22;20022;-88
2022/01/23 10:28:03;;;;;;;7.07;4.55;;;6.20;99.90;;;;;;6250198;22;20018;-89
2022/01/23 10:30:42;;;;;;;9.68;4.85;;;6.20;99.90;;;;;;6220787;22;20008;-93
2022/01/23 10:33:19;;;;;;;6.00;4.30;;;6.20;99.90;;;;;;6228367;22;20048;-94
2022/01/23 10:36:02;;;;;;;9.05;4.40;;;6.30;99.90;;;;;;6228035;22;20097;-95
2022/01/23 10:38:49;;;;;;;9.32;5.38;;;6.20;99.90;;;;;;6225614;22;20020;-96
2022/01/23 10:49:48;;;;;;;10.57;4.97;;;6.30;99.90;;;;;;6253739;22;20158;-96
2022/01/23 10:52:35;;;;;;;9.25;5.15;;;6.50;99.90;;;;;;6229016;22;20035;-96
2022/01/23 10:55:04;;;;;;;15.27;5.88;;;6.40;99.90;;;;;;6229305;22;20078;-96
2022/01/23 10:57:35;;;;;;;9.65;5.03;;;6.50;99.90;;;;;;6249456;22;20026;-95
2022/01/23 11:00:04;;;;;;;9.32;4.97;;;6.50;99.90;;;;;;6224184;22;20034;-95
2022/01/23 11:02:29;;;;;;;8.77;5.22;;;6.50;99.90;;;;;;6224699;22;20019;-94
2022/01/23 11:05:22;;;;;;;9.85;5.68;;;6.60;99.90;;;;;;6223827;22;20073;-94
2022/01/23 11:07:49;;;;;;;7.75;4.20;;;6.60;99.90;;;;;;6224239;22;20100;-94
2022/01/23 11:10:20;;;;;;;9.63;4.90;;;6.60;99.90;;;;;;6199081;22;20020;-94
2022/01/23 11:18:14;;;;;;;7.18;4.03;;;6.70;99.90;;;;;;6242495;22;20024;-83
2022/01/23 11:20:50;;;;;;;4.72;3.15;;;6.70;99.90;;;;;;6216868;22;20015;-83
2022/01/23 11:23:21;;;;;;;6.38;3.40;;;6.80;99.90;;;;;;6217322;22;20015;-84
2022/01/23 11:26:10;;;;;;;5.20;3.17;;;6.70;99.90;;;;;;6243239;22;20024;-84
2022/01/23 11:28:41;;;;;;;4.82;2.97;;;6.80;99.90;;;;;;6242955;22;20560;-84
2022/01/23 11:31:11;;;;;;;6.25;3.25;;;6.70;99.90;;;;;;6243428;22;20473;-84
2022/01/23 11:33:37;;;;;;;4.07;2.55;;;6.70;99.90;;;;;;6218305;22;20018;-84
2022/01/23 11:36:04;;;;;;;7.10;3.17;;;7.60;99.90;;;;;;6244067;22;20027;-85
2022/01/23 11:38:30;;;;;;;3.58;2.20;;;6.80;99.90;;;;;;6193022;22;20023;-84
2022/01/23 11:55:32;;;;;;;2.97;2.20;;;6.60;99.90;;;;;;6221637;22;20026;-84
2022/01/23 11:57:59;;;;;;;2.85;1.77;;;6.50;99.90;;;;;;6243422;22;20015;-84
2022/01/23 12:00:30;;;;;;;2.50;1.50;;;6.50;99.90;;;;;;6193462;22;20023;-84
2022/01/23 12:03:15;;;;;;;1.80;1.38;;;6.40;99.90;;;;;;6218778;22;20095;-84
2022/01/23 12:05:46;;;;;;;2.47;1.30;;;6.40;99.90;;;;;;6243575;22;20546;-84
2022/01/23 12:08:36;;;;;;;2.53;1.38;;;6.30;99.90;;;;;;6243695;22;20034;-85
2022/01/23 12:17:01;;;;;;;1.13;0.90;;;6.40;99.90;;;;;;6210862;22;20012;-85
2022/01/23 12:19:51;;;;;;;1.95;1.20;;;6.30;99.90;;;;;;6209573;22;20015;-85
2022/01/23 12:22:34;;;;;;;0.80;0.70;;;6.30;99.90;;;;;;6209610;22;20560;-85
2022/01/23 12:25:22;;;;;;;0.60;0.60;;;6.30;99.90;;;;;;6234403;22;20090;-86
2022/01/23 12:28:08;;;;;;;0.73;0.60;;;6.30;99.90;;;;;;6237050;22;20024;-86
2022/01/23 12:30:34;;;;;;;2.22;1.08;;;6.20;99.90;;;;;;6236887;22;20122;-85
2022/01/23 12:33:20;;;;;;;2.17;0.95;;;6.20;99.90;;;;;;6186243;22;20526;-84
2022/01/23 12:35:59;;;;;;;1.85;1.05;;;6.20;99.90;;;;;;6212386;22;20027;-84
2022/01/23 12:38:35;;;;;;;1.30;1.20;;;6.20;99.90;;;;;;6211581;22;20442;-83
2022/01/23 12:41:24;;;;;;;1.27;0.93;;;5.20;99.90;;;;;;6237218;22;20034;-85
2022/01/23 12:43:55;;;;;;;1.40;1.17;;;6.10;99.90;;;;;;6211328;22;20972;-85
2022/01/23 12:46:29;;;;;;;1.33;0.90;;;6.10;99.90;;;;;;6208164;22;20482;-84
2022/01/23 12:48:56;;;;;;;1.10;1.00;;;6.10;99.90;;;;;;6210417;22;20012;-84
2022/01/23 12:51:21;;;;;;;3.20;0.90;;;6.10;99.90;;;;;;6186415;22;20020;-84
2022/01/23 12:53:47;;;;;;;0.95;0.73;;;6.10;99.90;;;;;;6237103;22;20070;-84
2022/01/23 12:56:17;;;;;;;1.05;0.85;;;6.00;99.90;;;;;;6237044;22;20016;-84
2022/01/23 12:58:54;;;;;;;2.17;0.90;;;6.10;99.90;;;;;;6211783;22;20034;-84
2022/01/23 13:01:23;;;;;;;3.60;1.00;;;6.00;99.90;;;;;;6211037;22;20016;-84
2022/01/23 13:03:57;;;;;;;1.58;1.15;;;5.70;99.90;;;;;;6218390;22;20479;-84
2022/01/23 13:06:42;;;;;;;3.88;2.22;;;6.30;99.90;;;;;;6243792;22;20016;-84
2022/01/23 13:09:29;;;;;;;4.50;1.88;;;6.10;99.90;;;;;;6215908;22;20374;-84
2022/01/23 13:12:13;;;;;;;3.72;2.13;;;6.00;99.90;;;;;;6240723;22;20022;-85
2022/01/23 13:18:06;;;;;;;3.28;2.10;;;6.00;99.90;;;;;;6240928;22;20132;-84
2022/01/23 13:32:02;;;;;;;2.97;2.05;;;6.00;99.90;;;;;;6241673;22;20221;-84
2022/01/23 13:34:35;;;;;;;4.22;2.00;;;6.00;99.90;;;;;;6241118;22;20020;-84
2022/01/23 13:37:05;;;;;;;2.92;2.05;;;6.00;99.90;;;;;;6215123;22;20089;-84
2022/01/23 13:39:47;;;;;;;3.00;1.95;;;5.90;99.90;;;;;;6216066;22;20081;-84
2022/01/23 13:53:36;;;;;;;2.63;1.73;;;5.90;99.90;;;;;;6239976;22;20106;-85
2022/01/23 13:58:51;;;;;;;3.22;2.10;;;5.90;99.90;;;;;;6218069;22;20019;-83
2022/01/23 14:02:14;;;;;;;2.92;1.85;;;5.90;99.90;;;;;;6196811;22;20026;-83
2022/01/23 14:04:03;;;;;;;2.78;1.58;;;5.90;99.90;;;;;;6212065;22;20019;-83
2022/01/23 14:06:29;;;;;;;4.75;1.52;;;5.90;99.90;;;;;;6218815;22;20538;-84
2022/01/23 14:09:07;;;;;;;2.67;1.80;;;5.90;99.90;;;;;;6194187;22;20020;-83
2022/01/23 14:11:33;;;;;;;2.20;1.80;;;5.90;99.90;;;;;;6244588;22;20016;-84
2022/01/23 14:14:19;;;;;;;4.28;2.00;;;5.90;99.90;;;;;;6194505;22;20548;-83
2022/01/23 14:16:47;;;;;;;2.97;1.90;;;5.90;99.90;;;;;;6244260;22;20066;-83
2022/01/23 14:19:14;;;;;;;3.00;2.03;;;5.90;99.90;;;;;;6220060;22;20016;-83
2022/01/23 14:21:41;;;;;;;2.35;1.90;;;6.00;99.90;;;;;;6219471;22;20012;-84
2022/01/23 14:24:07;;;;;;;4.05;2.55;;;5.90;99.90;;;;;;6244177;22;20442;-83
2022/01/23 14:26:33;;;;;;;4.15;2.30;;;5.90;99.90;;;;;;6218982;22;20095;-83
2022/01/23 14:29:05;;;;;;;3.50;2.10;;;5.90;99.90;;;;;;6219328;22;20016;-83
2022/01/23 14:31:39;;;;;;;5.75;2.35;;;5.90;99.90;;;;;;6244699;22;20065;-83
2022/01/23 14:34:23;;;;;;;4.05;2.30;;;5.90;99.90;;;;;;6195901;22;20016;-83
2022/01/23 14:36:58;;;;;;;2.67;1.80;;;6.40;99.90;;;;;;6220081;22;20012;-83
2022/01/23 14:39:24;;;;;;;2.05;1.70;;;5.80;99.90;;;;;;6218861;22;20091;-84
2022/01/23 14:41:50;;;;;;;2.05;1.85;;;5.80;99.90;;;;;;6244172;22;20015;-83
2022/01/23 14:44:20;;;;;;;2.92;2.10;;;5.80;99.90;;;;;;6218976;22;20145;-83
2022/01/23 14:46:48;;;;;;;2.83;2.05;;;5.80;99.90;;;;;;6219013;22;20016;-83
2022/01/23 14:49:22;;;;;;;2.58;1.90;;;5.80;99.90;;;;;;6218632;22;20477;-83
2022/01/23 14:51:48;;;;;;;2.28;1.73;;;5.70;99.90;;;;;;6244227;22;20015;-83
2022/01/23 14:54:15;;;;;;;3.78;1.90;;;6.50;99.90;;;;;;6218711;22;20020;-84
2022/01/23 14:56:41;;;;;;;3.25;2.05;;;5.70;99.90;;;;;;6218472;22;20016;-83
2022/01/23 14:59:11;;;;;;;3.05;1.55;;;5.70;99.90;;;;;;6219348;22;20393;-83
2022/01/23 15:01:38;;;;;;;3.17;1.60;;;5.70;99.90;;;;;;6219104;22;20016;-84
2022/01/23 15:04:08;;;;;;;3.58;1.65;;;5.70;99.90;;;;;;6219227;22;20027;-83
2022/01/23 15:06:35;;;;;;;2.28;1.42;;;5.70;99.90;;;;;;6219881;22;20011;-83
2022/01/23 15:09:08;;;;;;;3.03;1.65;;;5.70;99.90;;;;;;6245937;22;20035;-83
2022/01/23 15:11:34;;;;;;;1.98;1.48;;;5.60;99.90;;;;;;6222316;22;20011;-83
2022/01/23 15:14:01;;;;;;;2.13;1.60;;;5.60;99.90;;;;;;6221838;22;20023;-84
2022/01/23 15:16:27;;;;;;;1.65;1.40;;;5.60;99.90;;;;;;6221672;22;20016;-83
2022/01/23 15:18:53;;;;;;;2.42;1.85;;;5.60;99.90;;;;;;6193720;22;20047;-83
2022/01/23 15:21:18;;;;;;;2.05;1.67;;;5.60;99.90;;;;;;6219432;22;20015;-83
2022/01/23 15:23:45;;;;;;;2.53;1.85;;;5.60;99.90;;;;;;6219186;22;20016;-83
2022/01/23 15:26:11;;;;;;;2.20;1.60;;;5.60;99.90;;;;;;6219118;22;20565;-83
2022/01/23 15:28:37;;;;;;;4.20;2.13;;;5.70;99.90;;;;;;6193858;22;20121;-83
2022/01/23 15:31:02;;;;;;;3.78;2.78;;;5.60;99.90;;;;;;6244045;22;20619;-83
2022/01/23 15:33:28;;;;;;;3.20;2.65;;;5.80;99.90;;;;;;6218429;22;20047;-84
2022/01/23 15:35:55;;;;;;;3.33;2.65;;;5.60;99.90;;;;;;6193620;22;20019;-83
2022/01/23 15:38:21;;;;;;;3.03;2.33;;;5.60;99.90;;;;;;6218328;22;20054;-83
2022/01/23 15:40:48;;;;;;;3.08;1.88;;;5.50;99.90;;;;;;6219028;22;20020;-83
2022/01/23 15:43:14;;;;;;;2.10;1.70;;;5.50;99.90;;;;;;6244010;22;20103;-84
2022/01/23 15:45:42;;;;;;;2.35;1.85;;;5.60;99.90;;;;;;6218659;22;20109;-83
2022/01/23 15:48:08;;;;;;;3.78;2.20;;;5.50;99.90;;;;;;6218530;22;20109;-83
2022/01/23 15:50:34;;;;;;;2.22;1.73;;;5.50;99.90;;;;;;6193763;22;20016;-83
2022/01/23 15:53:00;;;;;;;4.10;2.63;;;5.50;99.90;;;;;;6218602;22;20043;-83
2022/01/23 15:55:28;;;;;;;3.33;2.30;;;5.50;99.90;;;;;;6219107;22;20031;-83
2022/01/23 15:57:55;;;;;;;3.42;2.35;;;5.50;99.90;;;;;;6243398;22;20014;-83
2022/01/23 16:00:21;;;;;;;3.00;2.40;;;5.50;99.90;;;;;;6244359;22;20462;-84
2022/01/23 16:02:47;;;;;;;2.65;2.08;;;5.50;99.90;;;;;;6245766;22;20027;-84
2022/01/23 16:05:14;;;;;;;2.13;1.92;;;5.50;99.90;;;;;;6220553;22;20020;-83
2022/01/23 16:07:39;;;;;;;3.22;2.17;;;5.50;99.90;;;;;;6220829;22;20012;-83
2022/01/23 16:10:06;;;;;;;1.98;1.77;;;5.50;99.90;;;;;;6195137;22;20022;-83
2022/01/23 16:12:32;;;;;;;1.75;1.60;;;5.40;99.90;;;;;;6245857;22;20095;-83
2022/01/23 16:14:59;;;;;;;2.45;2.10;;;5.40;99.90;;;;;;6219626;22;20024;-83
2022/01/23 16:17:25;;;;;;;4.60;2.78;;;5.50;99.90;;;;;;6220436;22;20019;-83
2022/01/23 16:19:54;;;;;;;3.97;1.88;;;5.40;99.90;;;;;;6219197;22;20015;-83
2022/01/23 16:22:21;;;;;;;4.78;2.90;;;5.40;99.90;;;;;;6220123;22;20047;-83
2022/01/23 16:24:47;;;;;;;4.28;3.28;;;5.40;99.90;;;;;;6220211;22;20016;-83
2022/01/23 16:27:12;;;;;;;6.47;2.88;;;5.40;99.90;;;;;;6220248;22;20019;-83